M I D A S
Marine Information and Data Acquisition System
Tripno 357 of the Zeeleeuw from 2002-11-08 08:37:10 to 2002-11-08 11:57:04
Back to CruiseResearch ActivitiesStationsMapUnderway DataData graphs

EquipmentUnitsComment
TimeDGPSUTC
LatitudeDGPSDM.mWGS84
LongitudeDGPSDM.mWGS84
HeadingGyrodeg 
SOGDGPSknotsSpeed over ground
COGDGPSdegCourse over ground
DepthEcho soundermeters200 kHz
Missing or incorrect values are displayed as -999
Navigation data collected by the RV Zeeleeuw from 2002-11-08 08:37:10 to 2002-11-08 11:57:04
Time Latitude Longitude Heading SOG COG Depth
2002-11-08 08:38:11 51°13.767 2°55.696 331.7 4.9 326.6 8.6
2002-11-08 08:39:13 51°13.858 2°55.617 337.8 6.9 334.6 8.9
2002-11-08 08:40:13 51°13.97 2°55.532 340.3 7.8 335.2 8.5
2002-11-08 08:41:13 51°14.09 2°55.443 339.3 8 334.4 -999
2002-11-08 08:42:13 51°14.203 2°55.336 327.3 7.9 322.6 8.5
2002-11-08 08:43:12 51°14.297 2°55.187 316.3 8.8 311.2 8.5
2002-11-08 08:44:14 51°14.396 2°54.986 300.8 9.3 296.8 9
2002-11-08 08:45:14 51°14.4 2°54.718 272.3 12 266.8 8.8
2002-11-08 08:46:13 51°14.353 2°54.39 253.5 13.1 249.2 7.7
2002-11-08 08:47:13 51°14.242 2°54.084 241.8 13.5 237.7 7.3
2002-11-08 08:48:13 51°14.141 2°53.766 249.5 13.6 244.7 7.4
2002-11-08 08:49:13 51°14.039 2°53.438 249.5 13.8 244.2 7.7
2002-11-08 08:50:13 51°13.941 2°53.104 249.7 14.1 244.9 8.1
2002-11-08 08:51:14 51°13.838 2°52.761 250 14.1 244.3 8.6
2002-11-08 08:52:14 51°13.739 2°52.423 249.8 14.1 244.8 8.8
2002-11-08 08:53:14 51°13.64 2°52.087 249.5 14 244.9 9
2002-11-08 08:54:14 51°13.533 2°51.756 245.5 14.1 241.4 9
2002-11-08 08:55:14 51°13.418 2°51.432 244.7 14 240.5 9.3
2002-11-08 08:56:14 51°13.302 2°51.109 244.3 14 240.2 9.4
2002-11-08 08:57:14 51°13.183 2°50.775 244.3 14.7 240.9 9.5
2002-11-08 08:58:12 51°13.066 2°50.44 244.7 15.1 241.2 9.5
2002-11-08 08:59:14 51°12.939 2°50.079 245 15.2 240.8 9.7
2002-11-08 09:00:12 51°12.819 2°49.739 243.7 15.2 240.4 9.8
2002-11-08 09:01:12 51°12.696 2°49.387 245.2 15.3 241.3 9.9
2002-11-08 09:02:14 51°12.57 2°49.023 244.5 15.1 241.3 10.1
2002-11-08 09:03:14 51°12.448 2°48.67 244.2 15.2 241.1 10.2
2002-11-08 09:04:13 51°12.329 2°48.324 245.2 15.1 241.1 10.4
2002-11-08 09:05:14 51°12.208 2°47.965 247.7 15.1 243.1 10.4
2002-11-08 09:06:14 51°12.108 2°47.598 252.8 15.1 248.4 10.6
2002-11-08 09:07:14 51°12.021 2°47.222 253.2 15.1 249.1 10.9
2002-11-08 09:08:14 51°11.933 2°46.845 254.5 15.2 249.6 11
2002-11-08 09:09:14 51°11.846 2°46.469 254 15.1 250.5 11.1
2002-11-08 09:10:12 51°11.759 2°46.105 254.3 15.2 249.5 11.2
2002-11-08 09:11:14 51°11.67 2°45.716 253.2 15.1 250 11.2
2002-11-08 09:12:14 51°11.583 2°45.338 254 15.2 250.1 11.2
2002-11-08 09:13:13 51°11.499 2°44.968 253.5 15.1 250 11.1
2002-11-08 09:14:12 51°11.413 2°44.596 253.5 15.3 249.6 11
2002-11-08 09:15:14 51°11.324 2°44.203 255.8 15.2 251.1 11
2002-11-08 09:16:12 51°11.259 2°43.827 260.3 15.3 255.6 11.1
2002-11-08 09:17:13 51°11.197 2°43.428 262.2 15.2 257.2 11.1
2002-11-08 09:18:14 51°11.137 2°43.035 261.5 14.5 255.8 11
2002-11-08 09:19:12 51°11.112 2°42.792 266.7 7.1 260.6 11.4
2002-11-08 09:20:14 51°11.096 2°42.683 283.5 1.7 260.4 11.4
2002-11-08 09:21:15 51°11.089 2°42.663 308.8 0.8 244.9 -999
2002-11-08 09:22:12 51°11.085 2°42.644 316.2 0.8 253.1 11.4
2002-11-08 09:23:12 51°11.083 2°42.624 321.7 0.9 274.3 11.5
2002-11-08 09:24:12 51°11.09 2°42.589 323.3 1.8 295 11.4
2002-11-08 09:25:12 51°11.111 2°42.534 326.3 2.7 303.9 11.3
2002-11-08 09:26:12 51°11.139 2°42.478 339.5 2.6 312.7 11.3
2002-11-08 09:27:12 51°11.164 2°42.436 339 1.9 309.4 11.1
2002-11-08 09:28:14 51°11.181 2°42.396 331.7 1.6 304.1 11
2002-11-08 09:29:12 51°11.191 2°42.363 326.7 1.3 293.6 10.9
2002-11-08 09:30:13 51°11.198 2°42.333 320.5 1.2 285.1 10.8
2002-11-08 09:31:12 51°11.202 2°42.305 312.5 1.1 278.2 10.9
2002-11-08 09:32:12 51°11.204 2°42.276 304.5 1.1 277.6 10.8
2002-11-08 09:33:13 51°11.206 2°42.248 302 1 279.8 10.8
2002-11-08 09:34:12 51°11.209 2°42.223 301.8 0.9 277 10.6
2002-11-08 09:35:13 51°11.211 2°42.199 300.8 0.9 277.6 10.9
2002-11-08 09:36:12 51°11.214 2°42.177 304 0.8 285.3 10.8
2002-11-08 09:37:14 51°11.214 2°42.158 303.5 0.6 273.5 10.9
2002-11-08 09:38:12 51°11.213 2°42.142 303.8 0.6 263.7 10.9
2002-11-08 09:39:12 51°11.213 2°42.129 309 0.5 271.9 10.9
2002-11-08 09:40:12 51°11.213 2°42.118 317.2 0.4 265.9 10.9
2002-11-08 09:41:12 51°11.211 2°42.106 323 0.5 254.5 10.9
2002-11-08 09:42:12 51°11.211 2°42.093 326.2 0.5 269.4 10.9
2002-11-08 09:43:12 51°11.211 2°42.08 326.5 0.5 276.5 10.9
2002-11-08 09:44:14 51°11.212 2°42.065 324.5 0.5 271.2 10.8
2002-11-08 09:45:14 51°11.214 2°42.049 319.5 0.7 276.8 10.9
2002-11-08 09:46:14 51°11.216 2°42.03 313.5 0.9 278.4 11
2002-11-08 09:47:12 51°11.216 2°42.012 308 0.7 268.6 11
2002-11-08 09:48:14 51°11.217 2°41.993 306.5 0.7 282.2 11.1
2002-11-08 09:49:14 51°11.217 2°41.977 307.5 0.6 275.2 11.2
2002-11-08 09:50:14 51°11.218 2°41.961 307 0.6 272.5 11.1
2002-11-08 09:51:14 51°11.219 2°41.944 305.8 0.7 280.8 11.2
2002-11-08 09:52:14 51°11.221 2°41.927 305 0.7 274.8 11.2
2002-11-08 09:53:14 51°11.223 2°41.91 305.3 0.7 281.5 11.2
2002-11-08 09:54:14 51°11.225 2°41.893 305.7 0.7 284.5 11.2
2002-11-08 09:55:12 51°11.227 2°41.875 306.2 0.7 281.1 11.2
2002-11-08 09:56:13 51°11.229 2°41.858 304.8 0.7 275.7 11.2
2002-11-08 09:57:14 51°11.229 2°41.842 304 0.5 261.1 11.2
2002-11-08 09:58:14 51°11.228 2°41.829 306.3 0.5 266.6 11.2
2002-11-08 09:59:14 51°11.228 2°41.814 309.5 0.6 268.4 11.2
2002-11-08 10:00:14 51°11.227 2°41.802 308.7 0.4 258.2 11.2
2002-11-08 10:01:14 51°11.228 2°41.79 313.7 0.5 263.7 11.3
2002-11-08 10:02:14 51°11.228 2°41.777 314.8 0.6 271.4 11.3
2002-11-08 10:03:14 51°11.229 2°41.763 314.3 0.6 279.5 11.3
2002-11-08 10:04:12 51°11.23 2°41.748 311.7 0.7 277.4 11.3
2002-11-08 10:05:14 51°11.23 2°41.734 308.7 0.5 270 11.3
2002-11-08 10:06:14 51°11.231 2°41.721 306.7 0.5 276.3 11.3
2002-11-08 10:07:14 51°11.232 2°41.708 306.3 0.5 281.6 11.3
2002-11-08 10:08:14 51°11.233 2°41.696 307.5 0.4 275.7 11.3
2002-11-08 10:09:14 51°11.234 2°41.684 310.2 0.5 283.3 11.3
2002-11-08 10:10:14 51°11.235 2°41.672 311.5 0.5 276.1 11.2
2002-11-08 10:11:14 51°11.235 2°41.663 312 0.4 270.4 11.3
2002-11-08 10:12:14 51°11.235 2°41.654 311.8 0.4 268.8 11.4
2002-11-08 10:13:14 51°11.237 2°41.638 303.3 0.8 285.2 11.3
2002-11-08 10:14:14 51°11.242 2°41.611 303.7 1.3 287.2 11.3
2002-11-08 10:15:14 51°11.249 2°41.569 300 1.9 282.8 11.3
2002-11-08 10:16:14 51°11.257 2°41.517 298.7 2.1 283.3 11.3
2002-11-08 10:17:14 51°11.265 2°41.464 302 2.1 282.9 11.3
2002-11-08 10:18:14 51°11.275 2°41.408 306.5 2.3 285.9 11.4
2002-11-08 10:19:14 51°11.286 2°41.352 311.3 2.2 290 11.4
2002-11-08 10:20:14 51°11.3 2°41.3 323.5 2 295.5 11.6
2002-11-08 10:21:14 51°11.316 2°41.256 331.3 1.9 304.4 11.7
2002-11-08 10:22:14 51°11.334 2°41.215 335.2 1.9 304.6 11.9
2002-11-08 10:23:14 51°11.359 2°41.174 350 2.3 322.4 12
2002-11-08 10:24:14 51°11.402 2°41.178 51.3 3.7 39.3 12.2
2002-11-08 10:25:12 51°11.405 2°41.273 100.3 3.2 105.6 11.9
2002-11-08 10:26:14 51°11.385 2°41.331 118.3 2.2 132 11.7
2002-11-08 10:27:14 51°11.359 2°41.36 140.2 1.8 156 11.8
2002-11-08 10:28:12 51°11.335 2°41.373 146.7 1.5 163.7 11.7
2002-11-08 10:29:14 51°11.311 2°41.383 149.8 1.4 166.1 11.7
2002-11-08 10:30:14 51°11.288 2°41.391 149.8 1.4 167.2 11.5
2002-11-08 10:31:14 51°11.26 2°41.407 149.5 2.9 153.8 11.5
2002-11-08 10:32:14 51°11.226 2°41.427 155 0.7 182.7 11.6
2002-11-08 10:33:14 51°11.216 2°41.427 142.5 0.6 176.7 11.6
2002-11-08 10:34:14 51°11.206 2°41.428 140.3 0.7 172.6 11.7
2002-11-08 10:35:12 51°11.195 2°41.432 144.5 0.8 172.1 11.8
2002-11-08 10:36:12 51°11.183 2°41.434 148 0.7 172.8 11.8
2002-11-08 10:37:14 51°11.172 2°41.434 148.8 0.6 178.1 11.8
2002-11-08 10:38:14 51°11.162 2°41.434 148 0.5 179.4 11.9
2002-11-08 10:39:14 51°11.154 2°41.435 148.2 0.5 182 11.9
2002-11-08 10:40:14 51°11.146 2°41.434 147.5 0.5 183.9 11.9
2002-11-08 10:41:14 51°11.139 2°41.432 146.3 0.4 191.4 11.9
2002-11-08 10:42:14 51°11.133 2°41.43 141.8 0.3 191.7 11.9
2002-11-08 10:43:14 51°11.129 2°41.429 137.8 0.3 182.2 11.9
2002-11-08 10:44:14 51°11.124 2°41.429 135.3 0.2 181 12
2002-11-08 10:45:14 51°11.12 2°41.431 130 0.3 171.3 12
2002-11-08 10:46:14 51°11.115 2°41.433 130.3 0.4 161.3 12
2002-11-08 10:47:14 51°11.109 2°41.436 132.3 0.4 158.9 12
2002-11-08 10:48:14 51°11.101 2°41.439 137.5 0.5 165.9 12
2002-11-08 10:49:14 51°11.094 2°41.442 137.8 0.5 168.4 12
2002-11-08 10:50:14 51°11.087 2°41.445 138.2 0.4 167.2 12
2002-11-08 10:51:12 51°11.081 2°41.446 139.5 0.4 173.4 12
2002-11-08 10:52:14 51°11.074 2°41.447 140.8 0.3 176.7 12
2002-11-08 10:53:14 51°11.069 2°41.448 138.8 0.3 179.3 12
2002-11-08 10:54:14 51°11.064 2°41.448 138.2 0.2 171.9 11.9
2002-11-08 10:55:12 51°11.058 2°41.448 137.5 0.4 175.5 12
2002-11-08 10:56:14 51°11.049 2°41.455 136.8 0.8 152.1 12
2002-11-08 10:57:14 51°11.033 2°41.475 135.7 1.7 140.6 12
2002-11-08 10:58:14 51°10.997 2°41.526 136.2 3.8 137.1 12.1
2002-11-08 10:59:14 51°10.947 2°41.647 113.2 6.4 113.5 12.2
2002-11-08 11:00:14 51°10.935 2°41.842 89 8.3 87.1 12.3
2002-11-08 11:01:14 51°10.989 2°42.1 79.2 11.5 73.6 12.2
2002-11-08 11:02:14 51°11.039 2°42.405 78.3 12 73.1 12.3
2002-11-08 11:03:14 51°11.094 2°42.73 79.5 13 74.1 12.4
2002-11-08 11:04:14 51°11.155 2°43.065 78.5 13.2 74.2 12.4
2002-11-08 11:05:14 51°11.217 2°43.403 77.7 13.2 72.2 12.4
2002-11-08 11:06:13 51°11.277 2°43.733 77.7 13.3 73.6 12.4
2002-11-08 11:07:14 51°11.338 2°44.074 79.8 13.1 75.6 12.4
2002-11-08 11:08:14 51°11.403 2°44.407 76.5 13.2 70.8 12.4
2002-11-08 11:09:14 51°11.47 2°44.739 75.5 13.1 71.2 12.5
2002-11-08 11:10:14 51°11.538 2°45.067 76.5 13.1 71.2 12.5
2002-11-08 11:11:14 51°11.604 2°45.402 76.7 13.2 72.3 12.5
2002-11-08 11:12:14 51°11.671 2°45.732 77.7 13 73.4 12.6
2002-11-08 11:13:14 51°11.753 2°46.054 69.3 13.1 63.4 12.6
2002-11-08 11:14:14 51°11.851 2°46.366 67.8 13.3 62.5 12.6
2002-11-08 11:15:14 51°11.946 2°46.681 69.5 13.1 65.4 12.7
2002-11-08 11:16:14 51°12.04 2°46.994 71.7 13.1 65 12.5
2002-11-08 11:17:14 51°12.134 2°47.308 69.3 13.1 64.6 12.6
2002-11-08 11:18:14 51°12.228 2°47.622 68.7 13.2 63.6 12.4
2002-11-08 11:19:14 51°12.321 2°47.939 69.8 13.2 64.1 12.3
2002-11-08 11:20:14 51°12.416 2°48.25 69.8 13 63.3 12.2
2002-11-08 11:21:14 51°12.507 2°48.564 69.5 13.1 64.4 12.1
2002-11-08 11:22:14 51°12.601 2°48.877 70.2 13.1 64.6 12
2002-11-08 11:23:14 51°12.695 2°49.198 69.2 13.4 64.9 11.8
2002-11-08 11:24:14 51°12.79 2°49.516 69.7 13.1 64.3 11.6
2002-11-08 11:25:14 51°12.886 2°49.835 68.8 13.3 64.7 11.4
2002-11-08 11:26:14 51°12.976 2°50.149 71.5 13 65.2 11.4
2002-11-08 11:27:14 51°13.069 2°50.464 71.2 13.2 66.5 11.1
2002-11-08 11:28:14 51°13.16 2°50.784 71.3 13.3 66.4 11
2002-11-08 11:29:14 51°13.264 2°51.097 65.8 13.3 60.8 10.7
2002-11-08 11:30:14 51°13.364 2°51.408 67.5 13.4 64.5 10.6
2002-11-08 11:31:14 51°13.469 2°51.715 63.7 13.2 59.1 10.5
2002-11-08 11:32:14 51°13.581 2°52.017 65 13.2 60.6 10.5
2002-11-08 11:33:14 51°13.695 2°52.323 66 13.4 61.7 10.5
2002-11-08 11:34:14 51°13.804 2°52.632 65.2 13.4 60.8 10.4
2002-11-08 11:35:14 51°13.92 2°52.937 63.5 13.5 57.6 10.2
2002-11-08 11:36:14 51°14.034 2°53.242 63.7 13.4 59 9.8
2002-11-08 11:37:14 51°14.143 2°53.55 67.2 13.3 63 9.6
2002-11-08 11:38:14 51°14.255 2°53.856 64.8 13.3 58 9.3
2002-11-08 11:39:14 51°14.33 2°54.17 80.7 12.2 75.6 9.4
2002-11-08 11:40:14 51°14.365 2°54.481 88.3 11.9 83 9.6
2002-11-08 11:41:14 51°14.378 2°54.799 90.7 12.1 87.1 10.3
2002-11-08 11:42:14 51°14.337 2°55.096 119.3 11.3 114.1 10.3
2002-11-08 11:43:13 51°14.245 2°55.293 140.7 7.6 135.4 10.4
2002-11-08 11:44:15 51°14.159 2°55.385 157.2 5.3 152.1 -999
2002-11-08 11:45:15 51°14.088 2°55.441 159.7 4.5 154.4 -999
2002-11-08 11:46:12 51°14.026 2°55.487 159 4.4 154.4 10.3
2002-11-08 11:47:13 51°13.959 2°55.539 159.7 4.2 153.7 10.7
2002-11-08 11:48:12 51°13.902 2°55.582 159.2 3.7 154.9 11
2002-11-08 11:49:13 51°13.848 2°55.622 160.2 3.4 154.6 11.2
2002-11-08 11:50:13 51°13.8 2°55.66 158.7 3.2 153 10.8
2002-11-08 11:51:13 51°13.76 2°55.705 140.7 2.9 137.7 10.3
2002-11-08 11:52:13 51°13.729 2°55.765 133.3 3 126.9 11.2
2002-11-08 11:53:14 51°13.7 2°55.829 132.8 2.8 125.4 9.9
2002-11-08 11:54:14 51°13.676 2°55.891 121.2 2.6 118.1 10.2
2002-11-08 11:55:13 51°13.667 2°55.939 117.5 1.3 107.6 7.8
2002-11-08 11:56:14 51°13.662 2°55.952 127.7 0.2 141.7 7.5